Time;durP1;ratioP1;P1;durP2;ratioP2;P2;SDS_P1;SDS_P2;PMS_P1;PMS_P2;Temp;Humidity;BMP_temperature;BMP_pressure;BME280_temperature;BME280_humidity;BME280_pressure;Samples;Min_cycle;Max_cycle;Signal;HPM_P1;HPM_P2
2023/12/18 00:00:22;;;;;;;28.17;12.15;;;;;;;7.97;100.00;103166.19;10334267;28;20050;-73
2023/12/18 00:05:23;;;;;;;28.48;14.10;;;;;;;7.96;100.00;103183.38;10334202;28;20037;-72
2023/12/18 00:10:23;;;;;;;25.38;12.63;;;;;;;7.99;100.00;103177.75;10334586;28;20058;-72
2023/12/18 00:15:25;;;;;;;16.77;12.10;;;;;;;7.98;100.00;103171.50;10333345;28;20117;-72
2023/12/18 00:20:26;;;;;;;24.95;13.23;;;;;;;7.92;100.00;103164.75;10316498;28;20554;-73
2023/12/18 00:25:26;;;;;;;22.13;11.55;;;;;;;7.95;100.00;103163.66;10335291;28;20100;-74
2023/12/18 00:30:27;;;;;;;27.23;11.48;;;;;;;7.88;100.00;103152.50;10333270;28;20077;-73
2023/12/18 00:35:28;;;;;;;18.42;10.65;;;;;;;7.95;100.00;103158.25;10347772;28;20092;-73
2023/12/18 00:40:28;;;;;;;20.33;10.55;;;;;;;8.00;100.00;103156.00;10315537;28;20041;-72
2023/12/18 00:45:28;;;;;;;22.33;11.32;;;;;;;7.99;100.00;103156.16;10332883;28;20030;-73
2023/12/18 00:50:29;;;;;;;24.88;10.75;;;;;;;7.98;100.00;103147.22;10331506;28;20389;-73
2023/12/18 00:55:29;;;;;;;23.30;12.45;;;;;;;7.92;100.00;103142.31;10331104;28;20034;-72
2023/12/18 01:00:30;;;;;;;26.35;11.88;;;;;;;7.99;100.00;103148.06;10333357;28;20058;-72
2023/12/18 01:05:30;;;;;;;24.40;12.70;;;;;;;7.96;100.00;103143.75;10330842;28;20189;-72
2023/12/18 01:10:31;;;;;;;19.95;11.23;;;;;;;8.05;100.00;103131.38;10330161;28;20096;-72
2023/12/18 01:15:31;;;;;;;35.00;12.80;;;;;;;7.99;100.00;103127.31;10331735;28;20152;-72
2023/12/18 01:20:32;;;;;;;15.25;11.75;;;;;;;7.94;100.00;103124.13;10330313;28;20174;-72
2023/12/18 01:25:33;;;;;;;22.02;12.70;;;;;;;7.97;100.00;103123.88;10336357;28;20431;-72
2023/12/18 01:30:33;;;;;;;11.80;9.10;;;;;;;7.93;100.00;103114.34;10336594;28;20128;-72
2023/12/18 01:35:34;;;;;;;28.67;12.30;;;;;;;7.98;100.00;103112.13;10334036;28;20144;-72
2023/12/18 01:40:35;;;;;;;19.27;11.85;;;;;;;8.07;100.00;103122.16;10331463;28;20466;-73
2023/12/18 01:45:35;;;;;;;17.65;9.55;;;;;;;8.01;100.00;103119.09;10331617;28;20069;-72
2023/12/18 01:50:36;;;;;;;17.65;10.23;;;;;;;8.06;100.00;103133.94;10337359;28;20087;-72
2023/12/18 01:55:36;;;;;;;24.33;11.15;;;;;;;8.00;100.00;103122.78;10339324;28;20034;-73
2023/12/18 02:00:36;;;;;;;26.73;12.30;;;;;;;8.07;100.00;103127.56;10338872;28;20485;-73
2023/12/18 02:05:37;;;;;;;16.13;10.70;;;;;;;8.15;100.00;103138.56;10337676;28;20035;-72
2023/12/18 02:10:37;;;;;;;16.73;11.77;;;;;;;8.18;100.00;103139.31;10337645;28;20374;-72
2023/12/18 02:15:39;;;;;;;28.38;12.25;;;;;;;8.12;100.00;103119.94;10338654;28;20058;-73
2023/12/18 02:20:43;;;;;;;16.23;11.85;;;;;;;8.16;100.00;103117.81;10321362;28;20035;-73
2023/12/18 02:25:43;;;;;;;16.65;10.85;;;;;;;8.15;100.00;103110.72;10337554;28;20058;-72
2023/12/18 02:30:44;;;;;;;21.50;10.48;;;;;;;8.21;100.00;103104.81;10338640;28;20042;-72
2023/12/18 02:35:44;;;;;;;13.07;10.02;;;;;;;8.27;100.00;103098.91;10337920;28;20027;-72
2023/12/18 02:40:45;;;;;;;19.38;10.65;;;;;;;8.15;100.00;103097.22;10353779;28;20053;-72
2023/12/18 02:45:45;;;;;;;24.52;14.23;;;;;;;8.09;100.00;103087.78;10337914;28;20421;-73
2023/12/18 02:50:45;;;;;;;21.35;12.48;;;;;;;8.09;100.00;103104.00;10336805;28;20034;-73
2023/12/18 02:55:46;;;;;;;21.70;13.70;;;;;;;8.01;100.00;103108.28;10337073;28;20041;-73
2023/12/18 03:00:46;;;;;;;25.42;13.20;;;;;;;7.97;100.00;103109.53;10338491;28;20133;-73
2023/12/18 03:05:47;;;;;;;14.93;12.93;;;;;;;7.90;100.00;103110.03;10336473;28;20034;-73
2023/12/18 03:10:47;;;;;;;17.67;12.30;;;;;;;7.92;100.00;103107.25;10336683;28;20037;-73
2023/12/18 03:15:48;;;;;;;22.83;12.88;;;;;;;7.90;100.00;103101.09;10335620;28;20474;-73
2023/12/18 03:20:48;;;;;;;20.98;12.75;;;;;;;7.81;100.00;103093.75;10335844;28;20121;-72
2023/12/18 03:25:48;;;;;;;20.90;13.10;;;;;;;7.87;100.00;103080.63;10335251;28;20124;-73
2023/12/18 03:30:49;;;;;;;19.05;14.10;;;;;;;7.88;100.00;103081.47;10334276;28;20034;-72
2023/12/18 03:35:49;;;;;;;20.73;14.75;;;;;;;7.92;100.00;103088.34;10335382;28;20074;-72
2023/12/18 03:40:50;;;;;;;14.82;12.27;;;;;;;7.88;100.00;103085.06;10334626;28;20116;-73
2023/12/18 03:45:50;;;;;;;16.13;12.30;;;;;;;7.92;100.00;103080.25;10334822;28;20122;-72
2023/12/18 03:50:51;;;;;;;19.08;12.50;;;;;;;7.83;100.00;103075.63;10355415;28;20113;-73
2023/12/18 03:55:51;;;;;;;21.48;13.02;;;;;;;7.79;100.00;103084.94;10339336;28;20076;-73
2023/12/18 04:00:51;;;;;;;28.25;14.63;;;;;;;7.90;100.00;103090.31;10337506;28;20177;-73
2023/12/18 04:05:52;;;;;;;19.38;14.05;;;;;;;7.87;100.00;103082.47;10334234;28;20077;-72
2023/12/18 04:10:52;;;;;;;21.98;13.95;;;;;;;7.88;100.00;103076.97;10333446;28;20470;-73
2023/12/18 04:15:53;;;;;;;20.90;12.07;;;;;;;7.84;100.00;103058.44;10334319;28;20030;-73
2023/12/18 04:20:54;;;;;;;29.75;14.10;;;;;;;7.91;100.00;103062.34;10336515;28;20501;-73
2023/12/18 04:25:54;;;;;;;15.15;11.68;;;;;;;7.92;100.00;103062.22;10333693;28;20066;-72
2023/12/18 04:30:55;;;;;;;29.33;11.63;;;;;;;7.96;100.00;103054.72;10333476;28;20042;-72
2023/12/18 04:35:55;;;;;;;14.48;12.18;;;;;;;8.01;100.00;103048.94;10333809;28;20038;-72
2023/12/18 04:40:57;;;;;;;25.17;12.07;;;;;;;8.06;100.00;103055.66;10333507;28;20030;-72
2023/12/18 04:45:59;;;;;;;15.35;13.23;;;;;;;8.06;100.00;103055.66;10348166;28;20446;-72
2023/12/18 04:50:59;;;;;;;14.77;10.45;;;;;;;8.12;100.00;103065.09;10332116;28;20034;-73
2023/12/18 04:55:59;;;;;;;14.25;10.18;;;;;;;8.13;100.00;103058.72;10331984;28;20030;-72
2023/12/18 05:01:00;;;;;;;20.55;11.35;;;;;;;8.23;100.00;103061.50;10332955;28;20050;-73
2023/12/18 05:06:01;;;;;;;17.80;10.10;;;;;;;8.26;100.00;103050.44;10331331;28;20121;-73
2023/12/18 05:11:01;;;;;;;27.65;13.52;;;;;;;8.23;100.00;103039.91;10332248;28;20049;-73
2023/12/18 05:16:01;;;;;;;20.50;12.90;;;;;;;8.10;100.00;103045.47;10330673;28;20475;-72
2023/12/18 05:21:05;;;;;;;22.00;12.75;;;;;;;8.09;100.00;103055.41;10330950;28;20042;-73
2023/12/18 05:26:06;;;;;;;28.35;13.95;;;;;;;8.02;100.00;103045.28;10346339;28;20039;-73
2023/12/18 05:31:10;;;;;;;21.60;12.98;;;;;;;8.02;100.00;103046.13;10331603;28;20031;-72
2023/12/18 05:36:10;;;;;;;20.60;13.75;;;;;;;7.91;100.00;103052.44;10331335;28;20394;-72
2023/12/18 05:41:10;;;;;;;18.23;14.15;;;;;;;7.95;100.00;103058.41;10331751;28;20045;-73
2023/12/18 05:46:12;;;;;;;20.65;13.13;;;;;;;7.91;100.00;103055.13;10331336;28;20679;-73
2023/12/18 05:51:20;;;;;;;16.35;12.65;;;;;;;7.89;100.00;103051.69;10331720;28;20038;-73
2023/12/18 05:56:20;;;;;;;15.30;13.60;;;;;;;7.93;100.00;103052.28;10332029;28;20403;-73
2023/12/18 06:01:21;;;;;;;28.98;15.63;;;;;;;7.94;100.00;103054.00;10331124;28;20094;-74
2023/12/18 06:06:21;;;;;;;25.40;14.65;;;;;;;7.93;100.00;103057.69;10330101;28;20117;-72
2023/12/18 06:11:22;;;;;;;26.42;15.70;;;;;;;7.83;100.00;103071.06;10330790;28;20092;-72
2023/12/18 06:16:22;;;;;;;21.33;15.57;;;;;;;7.79;100.00;103071.47;10331815;28;20109;-72
2023/12/18 06:21:23;;;;;;;25.13;15.98;;;;;;;7.68;100.00;103066.94;10334309;28;20038;-72
2023/12/18 06:26:23;;;;;;;18.75;14.32;;;;;;;7.68;100.00;103059.69;10335223;28;20042;-74
2023/12/18 06:31:23;;;;;;;18.20;14.52;;;;;;;7.62;100.00;103062.03;10328956;28;20033;-72
2023/12/18 06:36:24;;;;;;;23.42;14.88;;;;;;;7.57;100.00;103058.88;10337241;28;20038;-73
2023/12/18 06:41:24;;;;;;;26.02;14.38;;;;;;;7.68;100.00;103067.78;10336567;28;20041;-72
2023/12/18 06:46:25;;;;;;;20.33;15.77;;;;;;;7.71;100.00;103064.00;10337164;28;20030;-72
2023/12/18 06:51:25;;;;;;;22.77;15.07;;;;;;;7.72;100.00;103048.66;10337058;28;20045;-72
2023/12/18 06:56:25;;;;;;;28.23;16.73;;;;;;;7.73;100.00;103050.41;10337915;28;20461;-72
2023/12/18 07:01:26;;;;;;;23.73;14.88;;;;;;;7.74;100.00;103052.94;10336980;28;20059;-72
2023/12/18 07:06:26;;;;;;;20.23;13.23;;;;;;;7.66;100.00;103037.41;10350900;28;20080;-72
2023/12/18 07:11:27;;;;;;;24.42;18.67;;;;;;;7.69;100.00;103047.94;10336422;28;20449;-72
2023/12/18 07:16:27;;;;;;;19.48;16.17;;;;;;;7.64;100.00;103052.84;10335393;28;20121;-72
2023/12/18 07:21:28;;;;;;;30.27;13.55;;;;;;;7.66;100.00;103039.25;10336263;28;20088;-72
2023/12/18 07:26:28;;;;;;;22.55;14.13;;;;;;;7.68;100.00;103032.72;10334368;28;20036;-72
2023/12/18 07:31:28;;;;;;;18.73;16.20;;;;;;;7.66;100.00;103036.56;10336005;28;20078;-72
2023/12/18 07:36:29;;;;;;;33.15;18.38;;;;;;;7.70;100.00;103048.78;10336350;28;20490;-72
2023/12/18 07:41:30;;;;;;;21.52;15.20;;;;;;;7.74;100.00;103049.41;10335774;28;20030;-72
2023/12/18 07:46:30;;;;;;;31.05;17.10;;;;;;;7.78;100.00;103040.06;10335240;28;20046;-72
2023/12/18 07:51:31;;;;;;;33.85;17.52;;;;;;;7.80;100.00;103044.34;10334996;28;20034;-72
2023/12/18 07:56:31;;;;;;;20.95;13.85;;;;;;;7.85;100.00;103033.19;10335548;28;20348;-72
2023/12/18 08:01:32;;;;;;;35.80;15.70;;;;;;;7.89;100.00;103045.44;10334998;28;20474;-72
2023/12/18 08:06:32;;;;;;;25.17;14.40;;;;;;;7.96;100.00;103057.44;10334625;28;20034;-72
2023/12/18 08:11:34;;;;;;;20.40;14.77;;;;;;;7.92;100.00;103054.13;10335290;28;20034;-72
2023/12/18 08:16:34;;;;;;;19.67;14.07;;;;;;;7.98;100.00;103054.63;10316720;28;20038;-72
2023/12/18 08:21:35;;;;;;;18.30;14.65;;;;;;;7.91;100.00;103051.53;10333910;28;20038;-72
2023/12/18 08:26:35;;;;;;;23.85;14.07;;;;;;;7.93;100.00;103054.97;10332434;28;20085;-72
2023/12/18 08:31:37;;;;;;;17.10;13.85;;;;;;;8.03;100.00;103061.31;10333231;28;20398;-72
2023/12/18 08:36:37;;;;;;;27.83;16.83;;;;;;;8.04;100.00;103054.97;10332712;28;20034;-72
2023/12/18 08:41:38;;;;;;;21.38;13.32;;;;;;;8.01;100.00;103049.81;10333384;28;20463;-72
2023/12/18 08:46:39;;;;;;;28.65;14.18;;;;;;;8.01;100.00;103049.81;10335001;28;20451;-72
2023/12/18 08:51:39;;;;;;;24.70;14.20;;;;;;;7.97;100.00;103029.44;10334596;28;20034;-72
2023/12/18 08:56:39;;;;;;;15.82;11.65;;;;;;;7.86;100.00;103019.56;10332762;28;20042;-72
2023/12/18 09:01:40;;;;;;;21.52;15.18;;;;;;;8.02;100.00;103031.78;10332776;28;20116;-72
2023/12/18 09:06:40;;;;;;;25.65;14.13;;;;;;;8.07;100.00;103016.03;10347593;28;20121;-72
2023/12/18 09:11:41;;;;;;;20.10;15.77;;;;;;;8.03;100.00;103028.09;10331292;28;20034;-72
2023/12/18 09:16:41;;;;;;;30.90;14.40;;;;;;;8.07;100.00;103026.84;10331916;28;20125;-72
2023/12/18 09:21:42;;;;;;;21.67;13.82;;;;;;;8.08;100.00;103024.03;10330634;28;20039;-72
2023/12/18 09:26:43;;;;;;;21.25;11.95;;;;;;;8.14;100.00;103019.97;10346994;28;20038;-72
2023/12/18 09:31:44;;;;;;;16.85;12.32;;;;;;;8.29;100.00;103015.09;10314413;28;20500;-73
2023/12/18 09:36:44;;;;;;;26.10;14.38;;;;;;;8.36;100.00;103009.06;10331844;28;20126;-72
2023/12/18 09:41:45;;;;;;;16.88;13.38;;;;;;;8.43;100.00;103013.97;10331659;28;20034;-72
2023/12/18 09:46:45;;;;;;;17.73;14.70;;;;;;;8.42;100.00;103004.97;10331269;28;20116;-73
2023/12/18 09:51:45;;;;;;;25.73;15.23;;;;;;;8.58;100.00;103015.31;10331264;28;20035;-72
2023/12/18 09:56:48;;;;;;;17.30;13.57;;;;;;;8.65;100.00;103011.13;10329879;28;20032;-72
2023/12/18 10:01:48;;;;;;;39.85;14.38;;;;;;;8.62;100.00;102995.19;10313236;28;20510;-72
2023/12/18 10:06:49;;;;;;;16.42;13.23;;;;;;;8.78;100.00;102984.75;10346138;28;20026;-73
2023/12/18 10:11:50;;;;;;;21.27;13.48;;;;;;;8.84;100.00;102986.06;10335966;28;20109;-72
2023/12/18 10:16:50;;;;;;;25.55;13.02;;;;;;;8.74;100.00;102977.91;10337604;28;20048;-72
2023/12/18 10:21:50;;;;;;;15.20;12.43;;;;;;;8.70;100.00;102975.59;10322288;28;20030;-72
2023/12/18 10:26:51;;;;;;;17.00;13.45;;;;;;;8.83;100.00;102968.97;10338786;28;20034;-72
2023/12/18 10:31:52;;;;;;;29.38;15.77;;;;;;;8.94;100.00;102970.75;10338282;28;20100;-72
2023/12/18 10:36:55;;;;;;;24.13;13.48;;;;;;;8.95;100.00;102967.03;10336159;28;20147;-72
2023/12/18 10:41:57;;;;;;;21.83;13.38;;;;;;;8.78;100.00;102944.22;10335917;28;20413;-73
2023/12/18 10:46:59;;;;;;;15.48;11.48;;;;;;;8.91;100.00;102948.53;10336044;28;20061;-72
2023/12/18 10:51:59;;;;;;;35.92;14.02;;;;;;;9.00;100.00;102945.03;10320592;28;20031;-72
2023/12/18 10:57:00;;;;;;;25.08;13.07;;;;;;;9.05;100.00;102946.31;10336065;28;20042;-72
2023/12/18 11:02:00;;;;;;;17.13;11.82;;;;;;;9.02;100.00;102934.91;10335597;28;20122;-72
2023/12/18 11:07:01;;;;;;;16.00;13.68;;;;;;;8.95;100.00;102934.63;10336380;28;20417;-72
2023/12/18 11:12:03;;;;;;;18.92;14.38;;;;;;;8.92;100.00;102926.78;10339548;28;20042;-72
2023/12/18 11:17:11;;;;;;;22.13;14.85;;;;;;;8.98;100.00;102934.34;10338302;28;20061;-72
2023/12/18 11:22:15;;;;;;;26.25;16.15;;;;;;;9.11;100.00;102925.13;10318779;28;20116;-73
2023/12/18 11:27:16;;;;;;;24.63;15.73;;;;;;;9.23;100.00;102930.28;10335100;28;20034;-72
2023/12/18 11:32:45;;;;;;;20.50;14.73;;;;;;;9.30;100.00;102917.06;10351117;28;20344;-73
2023/12/18 11:37:50;;;;;;;25.15;14.43;;;;;;;9.28;100.00;102913.63;10336261;28;20084;-72
2023/12/18 11:42:52;;;;;;;27.25;17.10;;;;;;;9.38;100.00;102911.81;10333678;28;20026;-72
2023/12/18 11:47:54;;;;;;;26.95;14.32;;;;;;;9.43;100.00;102909.53;10334808;28;20037;-72
2023/12/18 11:52:58;;;;;;;20.42;12.93;;;;;;;9.43;100.00;102881.66;10349946;28;20038;-72
2023/12/18 11:57:58;;;;;;;22.33;13.10;;;;;;;9.28;100.00;102878.50;10333883;28;20074;-72
2023/12/18 12:03:02;;;;;;;21.95;12.95;;;;;;;9.32;100.00;102898.88;10318071;28;20038;-73
2023/12/18 12:08:02;;;;;;;19.85;13.23;;;;;;;9.36;100.00;102894.88;10333332;28;20046;-72
2023/12/18 12:13:03;;;;;;;29.25;15.25;;;;;;;9.36;100.00;102885.91;10335347;28;20034;-72
2023/12/18 12:18:04;;;;;;;24.73;15.52;;;;;;;9.35;100.00;102871.56;10333139;28;20030;-72
2023/12/18 12:23:05;;;;;;;15.98;11.15;;;;;;;9.29;100.00;102847.78;10332942;28;20104;-73
2023/12/18 12:28:06;;;;;;;23.35;12.32;;;;;;;9.19;100.00;102855.88;10333993;28;20042;-73
2023/12/18 12:33:06;;;;;;;22.85;12.88;;;;;;;9.14;100.00;102843.78;10332672;28;20422;-72
2023/12/18 12:38:07;;;;;;;21.02;11.77;;;;;;;9.07;100.00;102838.06;10332353;28;20096;-72
2023/12/18 12:43:08;;;;;;;17.35;12.48;;;;;;;8.93;100.00;102846.56;10332249;28;20112;-72
2023/12/18 12:48:11;;;;;;;21.73;12.95;;;;;;;8.93;100.00;102838.47;10331739;28;20038;-72
2023/12/18 12:53:12;;;;;;;18.42;13.63;;;;;;;9.03;100.00;102826.69;10332563;28;20038;-72
2023/12/18 12:58:12;;;;;;;18.65;12.40;;;;;;;9.00;100.00;102816.16;10332248;28;20521;-72
2023/12/18 13:03:13;;;;;;;24.55;14.68;;;;;;;9.05;100.00;102794.13;10332133;28;20046;-72
2023/12/18 13:08:13;;;;;;;22.48;13.82;;;;;;;8.82;100.00;102801.63;10332563;28;20394;-72
2023/12/18 13:13:14;;;;;;;28.45;14.07;;;;;;;8.72;100.00;102807.00;10332007;28;20065;-72
2023/12/18 13:18:17;;;;;;;18.70;13.15;;;;;;;8.59;100.00;102804.56;10331275;28;20105;-72
2023/12/18 13:23:18;;;;;;;27.38;14.25;;;;;;;8.63;100.00;102782.69;10330902;28;20053;-73
2023/12/18 13:28:18;;;;;;;32.17;15.88;;;;;;;8.62;100.00;102773.72;10331156;28;20027;-72
2023/12/18 13:33:19;;;;;;;18.05;13.90;;;;;;;8.62;100.00;102762.94;10332039;28;20454;-72
2023/12/18 13:38:19;;;;;;;21.65;13.82;;;;;;;8.47;100.00;102769.69;10331965;28;20072;-72
2023/12/18 13:43:19;;;;;;;26.77;14.05;;;;;;;8.50;100.00;102748.69;10335708;28;20042;-72
2023/12/18 13:48:20;;;;;;;20.30;13.98;;;;;;;8.54;100.00;102760.91;10338980;28;20541;-72
2023/12/18 13:53:20;;;;;;;33.47;15.07;;;;;;;8.54;100.00;102774.41;10354406;28;20038;-72
2023/12/18 13:58:20;;;;;;;18.92;13.63;;;;;;;8.55;100.00;102770.72;10339805;28;20061;-72
2023/12/18 14:03:21;;;;;;;24.65;15.35;;;;;;;8.49;100.00;102771.28;10338399;28;20408;-71
2023/12/18 14:08:21;;;;;;;27.25;13.65;;;;;;;8.45;100.00;102777.91;10354287;28;20133;-72
2023/12/18 14:13:22;;;;;;;21.67;14.23;;;;;;;8.38;100.00;102752.47;10338752;28;20470;-72
2023/12/18 14:18:22;;;;;;;17.17;14.65;;;;;;;8.32;100.00;102723.31;10336516;28;20142;-72
2023/12/18 14:23:23;;;;;;;19.92;14.50;;;;;;;8.27;100.00;102749.88;10337578;28;20045;-72
2023/12/18 14:28:23;;;;;;;19.15;15.18;;;;;;;8.26;100.00;102748.13;10339224;28;20042;-72
2023/12/18 14:33:23;;;;;;;38.85;13.85;;;;;;;8.27;100.00;102742.63;10339289;28;20109;-72
2023/12/18 14:38:24;;;;;;;20.48;15.38;;;;;;;8.19;100.00;102725.41;10337883;28;20474;-72
2023/12/18 14:43:24;;;;;;;40.00;16.40;;;;;;;8.12;100.00;102757.47;10338495;28;20128;-73
2023/12/18 14:48:25;;;;;;;22.83;14.75;;;;;;;8.13;100.00;102762.72;10339025;28;20073;-71
2023/12/18 14:53:25;;;;;;;28.05;14.13;;;;;;;8.09;100.00;102755.91;10336652;28;20493;-72
2023/12/18 14:58:25;;;;;;;19.92;14.68;;;;;;;8.19;100.00;102760.47;10335082;28;20055;-72
2023/12/18 15:03:26;;;;;;;23.08;15.82;;;;;;;8.17;100.00;102744.44;10335634;28;20042;-72
2023/12/18 15:08:27;;;;;;;27.83;15.77;;;;;;;8.03;100.00;102734.84;10336698;28;20465;-72
2023/12/18 15:13:27;;;;;;;24.65;15.05;;;;;;;7.93;100.00;102731.25;10336714;28;20117;-72
2023/12/18 15:18:28;;;;;;;17.77;13.48;;;;;;;7.90;100.00;102708.09;10336888;28;20041;-72
2023/12/18 15:23:28;;;;;;;34.85;16.63;;;;;;;7.79;100.00;102710.06;10319086;28;20050;-72
2023/12/18 15:28:29;;;;;;;27.83;15.65;;;;;;;7.83;100.00;102733.06;10337086;28;20097;-72
2023/12/18 15:33:29;;;;;;;23.13;13.98;;;;;;;7.90;100.00;102732.38;10335879;28;20133;-72
2023/12/18 15:38:30;;;;;;;19.20;15.25;;;;;;;7.85;100.00;102723.84;10334381;28;20038;-72
2023/12/18 15:43:30;;;;;;;22.23;15.48;;;;;;;7.78;100.00;102713.72;10333611;28;20035;-72
2023/12/18 15:48:31;;;;;;;25.40;18.58;;;;;;;7.82;100.00;102736.75;10335623;28;20076;-72
2023/12/18 15:53:31;;;;;;;25.45;16.02;;;;;;;7.81;100.00;102718.84;10336564;28;20037;-72
2023/12/18 15:58:32;;;;;;;16.25;12.88;;;;;;;7.76;100.00;102713.88;10336461;28;20065;-72
2023/12/18 16:03:33;;;;;;;35.72;17.38;;;;;;;7.79;100.00;102712.75;10337011;28;20034;-72
2023/12/18 16:08:34;;;;;;;27.98;18.48;;;;;;;7.70;100.00;102700.94;10336867;28;20048;-72
2023/12/18 16:13:34;;;;;;;21.42;18.10;;;;;;;7.68;100.00;102700.19;10333438;28;20433;-72
2023/12/18 16:18:34;;;;;;;34.58;18.13;;;;;;;7.73;100.00;102691.72;10334649;28;20089;-72
2023/12/18 16:23:35;;;;;;;39.78;19.77;;;;;;;7.82;100.00;102699.00;10333003;28;20089;-72
2023/12/18 16:28:38;;;;;;;20.52;17.02;;;;;;;7.73;100.00;102689.03;10349809;28;20108;-72
2023/12/18 16:33:40;;;;;;;27.23;18.10;;;;;;;7.76;100.00;102688.75;10332028;28;20065;-72
2023/12/18 16:38:40;;;;;;;37.47;18.05;;;;;;;7.82;100.00;102712.50;10331854;28;20042;-72
2023/12/18 16:43:41;;;;;;;24.40;18.75;;;;;;;7.84;100.00;102732.06;10332525;28;20430;-72
2023/12/18 16:48:41;;;;;;;19.77;17.27;;;;;;;7.79;100.00;102716.31;10331046;28;20034;-72
2023/12/18 16:53:42;;;;;;;32.92;18.10;;;;;;;7.64;100.00;102702.31;10333796;28;20041;-71
2023/12/18 16:58:42;;;;;;;29.00;19.25;;;;;;;7.51;100.00;102681.97;10332567;28;20069;-72
2023/12/18 17:03:43;;;;;;;26.13;17.05;;;;;;;7.49;100.00;102678.53;10331885;28;20038;-73
2023/12/18 17:08:43;;;;;;;43.30;23.38;;;;;;;7.40;100.00;102666.69;10332806;28;20030;-73
2023/12/18 17:13:44;;;;;;;29.77;21.15;;;;;;;7.48;100.00;102648.03;10332303;28;20038;-72
2023/12/18 17:18:44;;;;;;;31.00;22.08;;;;;;;7.46;100.00;102644.59;10331257;28;20030;-72
2023/12/18 17:23:45;;;;;;;28.98;19.90;;;;;;;7.35;100.00;102637.47;10333560;28;20133;-72
2023/12/18 17:28:45;;;;;;;26.50;20.25;;;;;;;7.31;100.00;102643.28;10333131;28;20046;-72
2023/12/18 17:33:46;;;;;;;26.92;20.95;;;;;;;7.38;100.00;102633.66;10331586;28;20034;-71
2023/12/18 17:38:46;;;;;;;31.60;21.60;;;;;;;7.23;100.00;102628.59;10331152;28;20045;-72
2023/12/18 17:43:47;;;;;;;22.58;18.80;;;;;;;7.17;100.00;102618.34;10332218;28;20053;-72
2023/12/18 17:48:47;;;;;;;29.50;20.02;;;;;;;7.14;100.00;102605.13;10330960;28;20445;-72
2023/12/18 17:53:48;;;;;;;33.70;25.63;;;;;;;7.04;100.00;102624.94;10331482;28;20034;-72
2023/12/18 17:58:49;;;;;;;38.78;24.73;;;;;;;7.12;100.00;102615.22;10330746;28;20514;-72
2023/12/18 18:03:49;;;;;;;50.80;26.23;;;;;;;7.06;100.00;102607.66;10331803;28;20067;-71
2023/12/18 18:08:49;;;;;;;39.97;26.20;;;;;;;7.00;100.00;102589.34;10331738;28;20046;-72
2023/12/18 18:13:50;;;;;;;36.08;20.23;;;;;;;7.01;100.00;102600.97;10329787;28;20085;-72
2023/12/18 18:18:50;;;;;;;33.75;23.05;;;;;;;6.97;100.00;102627.31;10331254;28;20439;-72
2023/12/18 18:23:51;;;;;;;49.25;19.45;;;;;;;6.92;100.00;102626.84;10332513;28;20367;-71
2023/12/18 18:28:51;;;;;;;34.35;25.30;;;;;;;6.91;100.00;102631.38;10333911;28;20039;-72
2023/12/18 18:33:52;;;;;;;40.00;23.95;;;;;;;6.97;100.00;102605.75;10339765;28;20482;-72
2023/12/18 18:38:52;;;;;;;42.20;23.08;;;;;;;7.00;100.00;102602.81;10339164;28;20070;-72
2023/12/18 18:43:53;;;;;;;28.83;21.52;;;;;;;6.92;100.00;102594.53;10340006;28;20489;-72
2023/12/18 18:48:53;;;;;;;28.77;21.52;;;;;;;6.90;100.00;102612.66;10337744;28;20040;-72
2023/12/18 18:53:54;;;;;;;37.88;23.25;;;;;;;6.76;100.00;102603.06;10338127;28;20033;-72
2023/12/18 18:58:54;;;;;;;37.00;22.67;;;;;;;6.87;100.00;102588.69;10337270;28;20078;-71
2023/12/18 19:03:56;;;;;;;29.02;23.13;;;;;;;6.87;100.00;102607.53;10336472;28;20038;-72
2023/12/18 19:08:56;;;;;;;33.40;21.25;;;;;;;6.86;100.00;102609.38;10337150;28;20034;-72
2023/12/18 19:13:56;;;;;;;45.25;25.73;;;;;;;6.73;100.00;102612.28;10337050;28;20038;-72
2023/12/18 19:18:57;;;;;;;37.05;24.65;;;;;;;6.82;100.00;102623.22;10353045;28;20034;-71
2023/12/18 19:23:57;;;;;;;43.58;29.88;;;;;;;6.92;100.00;102645.69;10335459;28;20105;-72
2023/12/18 19:29:00;;;;;;;38.10;24.40;;;;;;;6.92;100.00;102651.06;10335304;28;20117;-72
2023/12/18 19:34:01;;;;;;;37.63;23.70;;;;;;;6.96;100.00;102644.47;10335697;28;20066;-72
2023/12/18 19:39:06;;;;;;;45.67;25.27;;;;;;;6.96;100.00;102647.16;10335646;28;20042;-72
2023/12/18 19:44:06;;;;;;;44.83;27.55;;;;;;;6.94;100.00;102639.19;10334854;28;20121;-72
2023/12/18 19:49:07;;;;;;;47.00;27.35;;;;;;;6.97;100.00;102643.47;10334734;28;20386;-73
2023/12/18 19:54:07;;;;;;;45.60;28.25;;;;;;;7.04;100.00;102625.78;10335323;28;20034;-74
2023/12/18 19:59:07;;;;;;;49.30;25.23;;;;;;;7.01;100.00;102627.91;10336107;28;20050;-73
2023/12/18 20:04:09;;;;;;;28.95;21.67;;;;;;;7.01;100.00;102617.97;10334008;28;20419;-74
2023/12/18 20:09:11;;;;;;;44.45;29.00;;;;;;;6.97;100.00;102589.59;10333391;28;20046;-72
2023/12/18 20:14:11;;;;;;;38.47;27.88;;;;;;;6.99;100.00;102563.41;10348071;28;20061;-73
2023/12/18 20:19:11;;;;;;;39.80;27.35;;;;;;;6.94;100.00;102563.78;10334510;28;20049;-73
2023/12/18 20:24:12;;;;;;;42.20;25.90;;;;;;;7.01;100.00;102553.31;10332088;28;20034;-72
2023/12/18 20:29:12;;;;;;;40.35;27.13;;;;;;;6.97;100.00;102551.91;10334296;28;20054;-73
2023/12/18 20:34:13;;;;;;;40.78;28.90;;;;;;;6.95;100.00;102554.69;10333404;28;20513;-72
2023/12/18 20:39:14;;;;;;;43.00;28.80;;;;;;;7.02;100.00;102536.19;10333256;28;20022;-73
2023/12/18 20:44:17;;;;;;;41.95;26.55;;;;;;;7.00;100.00;102524.69;10333875;28;20058;-72
2023/12/18 20:49:17;;;;;;;45.97;32.67;;;;;;;6.90;100.00;102523.81;10334820;28;20042;-72
2023/12/18 20:54:18;;;;;;;43.38;30.92;;;;;;;6.95;100.00;102526.91;10333370;28;20351;-73
2023/12/18 20:59:18;;;;;;;51.70;27.08;;;;;;;6.91;100.00;102523.66;10333740;28;20050;-72
2023/12/18 21:04:18;;;;;;;53.88;29.48;;;;;;;6.84;100.00;102522.47;10333144;28;20489;-72
2023/12/18 21:09:19;;;;;;;56.63;31.70;;;;;;;6.84;100.00;102530.56;10333398;28;20129;-72
2023/12/18 21:14:19;;;;;;;59.70;30.50;;;;;;;6.83;100.00;102539.63;10332402;28;20034;-72
2023/12/18 21:19:20;;;;;;;52.20;30.05;;;;;;;6.88;100.00;102564.31;10333592;28;20062;-73
2023/12/18 21:24:20;;;;;;;52.90;30.52;;;;;;;6.95;100.00;102564.63;10332305;28;20038;-73
2023/12/18 21:29:20;;;;;;;52.85;31.05;;;;;;;6.85;100.00;102542.19;10331334;28;20105;-73
2023/12/18 21:34:21;;;;;;;43.92;28.67;;;;;;;6.73;100.00;102526.13;10330337;28;20397;-72
2023/12/18 21:39:21;;;;;;;53.17;30.30;;;;;;;6.78;100.00;102519.47;10331811;28;20125;-72
2023/12/18 21:44:22;;;;;;;44.75;28.48;;;;;;;6.76;100.00;102527.66;10331183;28;20129;-72
2023/12/18 21:49:22;;;;;;;58.63;32.17;;;;;;;6.83;100.00;102511.81;10331764;28;20041;-72
2023/12/18 21:54:22;;;;;;;49.63;33.38;;;;;;;6.75;100.00;102517.91;10331042;28;20097;-72
2023/12/18 21:59:24;;;;;;;47.03;34.03;;;;;;;6.86;100.00;102500.78;10330427;28;20472;-73
2023/12/18 22:04:24;;;;;;;53.33;32.75;;;;;;;6.87;100.00;102506.06;10333005;28;20042;-73
2023/12/18 22:09:26;;;;;;;52.58;33.30;;;;;;;6.80;100.00;102494.13;10338807;28;20514;-72
2023/12/18 22:14:27;;;;;;;63.03;37.47;;;;;;;6.86;100.00;102484.63;10337725;28;20455;-72
2023/12/18 22:19:27;;;;;;;48.55;35.30;;;;;;;6.91;100.00;102469.78;10339334;28;20121;-74
2023/12/18 22:24:28;;;;;;;56.75;35.20;;;;;;;6.95;100.00;102490.06;10338469;28;20429;-73
2023/12/18 22:29:29;;;;;;;63.55;38.50;;;;;;;6.93;100.00;102493.91;10336905;28;20494;-72